Weather at Transdec Helipad

Public forecast

Using degrees Fahrenheit for public forecast. Weather courtesy of forecast.io.

Closest aviation weather report (METAR) to Transdec Helipad

Closest report is North Island Naval Air Station-Halsey Field, 1.8 nm (3.4 km) E.

2024/07/19 04:52 (retrieved 28 minutes ago)

KNZY 190452Z 00000KT 10SM FEW011 FEW200 19/16 A2998 RMK AO2 SLP152 T01940161

Closest aviation forecast (TAF) to Transdec Helipad

Forecast is more than 6 hours old.

Closest forecast is Miramar Marine Corps Air Station - Mitscher Field, 11.3 nm (20.9 km) NNE.

2024/07/18 21:07 Ammendment (retrieved 8 hours ago)

TAF AMD KNKX 1821/1921 25009KT 9999 FEW010 FEW050CB QNH2998INS BECMG 1902/1904 VRB03KT 8000 BR BKN010 QNH2996INS FM191430 VRB03KT 9000 BR SCT010 QNH2998INS FM191600 32005KT 9999 NSW SCT012 QNH2998INS T26/1822Z T18/1913Z